Time;durP1;ratioP1;P1;durP2;ratioP2;P2;SDS_P1;SDS_P2;PMS_P1;PMS_P2;Temp;Humidity;BMP_temperature;BMP_pressure;BME280_temperature;BME280_humidity;BME280_pressure;Samples;Min_cycle;Max_cycle;Signal;HPM_P1;HPM_P2
2022/12/01 00:00:28;;;;;;;61.08;5.07;;;;;;;;;;5035312;28;20042;-55
2022/12/01 00:02:55;;;;;;;37.45;4.40;;;;;;;;;;5035060;28;20721;-58
2022/12/01 00:05:22;;;;;;;42.53;4.90;;;;;;;;;;5035164;28;20029;-56
2022/12/01 00:07:49;;;;;;;46.83;5.45;;;;;;;;;;5035192;28;20069;-57
2022/12/01 00:10:27;;;;;;;44.55;4.90;;;;;;;;;;5032380;28;20021;-54
2022/12/01 00:12:58;;;;;;;48.85;4.82;;;;;;;;;;5035242;28;20095;-57
2022/12/01 00:15:29;;;;;;;43.50;4.60;;;;;;;;;;5035371;28;20022;-56
2022/12/01 00:17:58;;;;;;;48.97;4.93;;;;;;;;;;5035230;28;20029;-53
2022/12/01 00:20:24;;;;;;;78.65;6.55;;;;;;;;;;5022508;28;20480;-57
2022/12/01 00:22:51;;;;;;;38.13;5.47;;;;;;;;;;5020598;28;20494;-51
2022/12/01 00:25:19;;;;;;;35.53;6.32;;;;;;;;;;5018443;28;20063;-58
2022/12/01 00:27:50;;;;;;;60.10;8.35;;;;;;;;;;5034665;28;20030;-59
2022/12/01 00:30:17;;;;;;;36.55;5.68;;;;;;;;;;5033340;28;20067;-58
2022/12/01 00:32:44;;;;;;;42.53;5.13;;;;;;;;;;5033776;28;20073;-51
2022/12/01 00:35:11;;;;;;;32.15;5.03;;;;;;;;;;5034058;28;20025;-55
2022/12/01 00:37:38;;;;;;;30.98;3.92;;;;;;;;;;5032078;28;20034;-57
2022/12/01 00:40:06;;;;;;;32.35;4.38;;;;;;;;;;5032787;28;20049;-54
2022/12/01 00:42:33;;;;;;;47.40;4.88;;;;;;;;;;5032757;28;20041;-58
2022/12/01 00:45:00;;;;;;;43.15;5.93;;;;;;;;;;5030482;28;20385;-58
2022/12/01 00:47:27;;;;;;;45.35;4.70;;;;;;;;;;5033408;28;20519;-57
2022/12/01 00:49:54;;;;;;;34.85;3.72;;;;;;;;;;5032053;28;20028;-57
2022/12/01 00:52:20;;;;;;;24.95;4.10;;;;;;;;;;5032561;28;20625;-58
2022/12/01 00:54:47;;;;;;;27.45;3.53;;;;;;;;;;5032763;28;20025;-58
2022/12/01 00:57:14;;;;;;;26.33;3.30;;;;;;;;;;5053467;23;20057;-57
2022/12/01 00:59:41;;;;;;;33.47;3.25;;;;;;;;;;5041363;28;20640;-57
2022/12/01 01:02:09;;;;;;;30.73;3.97;;;;;;;;;;5042504;28;20067;-52
2022/12/01 01:04:36;;;;;;;27.38;3.75;;;;;;;;;;5043610;28;20032;-53
2022/12/01 01:07:03;;;;;;;40.42;3.55;;;;;;;;;;5049971;28;20030;-58
2022/12/01 01:09:32;;;;;;;32.55;4.65;;;;;;;;;;5043714;28;20026;-55
2022/12/01 01:11:59;;;;;;;70.35;9.65;;;;;;;;;;5047088;28;20033;-59
2022/12/01 01:14:26;;;;;;;70.60;9.45;;;;;;;;;;5053400;28;20498;-58
2022/12/01 01:16:55;;;;;;;65.75;7.47;;;;;;;;;;5053472;28;20037;-59
2022/12/01 01:19:22;;;;;;;60.60;7.22;;;;;;;;;;5053757;28;20033;-59
2022/12/01 01:21:49;;;;;;;43.92;5.47;;;;;;;;;;5053333;28;20021;-58
2022/12/01 01:24:16;;;;;;;49.33;6.07;;;;;;;;;;5052064;28;20041;-58
2022/12/01 01:26:43;;;;;;;37.10;6.53;;;;;;;;;;5053028;28;20025;-58
2022/12/01 01:29:10;;;;;;;38.20;6.00;;;;;;;;;;5053351;28;20482;-52
2022/12/01 01:31:37;;;;;;;40.25;5.85;;;;;;;;;;5053087;28;20036;-59
2022/12/01 01:34:04;;;;;;;35.67;5.30;;;;;;;;;;5053360;28;20642;-60
2022/12/01 01:36:31;;;;;;;29.88;5.75;;;;;;;;;;5053250;28;20032;-59
2022/12/01 01:38:58;;;;;;;26.75;5.00;;;;;;;;;;5052672;28;20055;-56
2022/12/01 01:41:25;;;;;;;29.58;5.63;;;;;;;;;;5052998;28;20037;-57
2022/12/01 01:43:57;;;;;;;29.50;4.40;;;;;;;;;;5053021;28;20040;-56
2022/12/01 01:46:28;;;;;;;41.55;6.03;;;;;;;;;;5052911;28;20251;-59
2022/12/01 01:48:55;;;;;;;46.22;5.85;;;;;;;;;;5052999;28;20032;-60
2022/12/01 01:51:28;;;;;;;36.00;5.65;;;;;;;;;;5052821;28;20044;-59
2022/12/01 01:53:57;;;;;;;25.50;4.05;;;;;;;;;;5050422;28;20075;-60
2022/12/01 01:56:24;;;;;;;30.98;4.90;;;;;;;;;;5040755;28;20523;-59
2022/12/01 01:58:52;;;;;;;35.05;5.60;;;;;;;;;;5040848;28;20048;-58
2022/12/01 02:01:19;;;;;;;30.38;4.53;;;;;;;;;;5035085;28;20025;-59
2022/12/01 02:03:47;;;;;;;25.13;4.38;;;;;;;;;;5032825;28;20049;-57
2022/12/01 02:06:14;;;;;;;23.92;4.13;;;;;;;;;;5032035;28;20423;-60
2022/12/01 02:08:41;;;;;;;15.90;3.38;;;;;;;;;;5033338;28;20679;-60
2022/12/01 02:11:11;;;;;;;31.77;3.72;;;;;;;;;;5034171;28;20040;-57
2022/12/01 02:13:45;;;;;;;19.85;3.53;;;;;;;;;;5032622;28;20566;-58
2022/12/01 02:16:27;;;;;;;16.00;4.20;;;;;;;;;;5032602;28;20108;-59
2022/12/01 02:19:00;;;;;;;23.60;5.88;;;;;;;;;;5032302;28;20069;-58
2022/12/01 02:21:44;;;;;;;24.73;6.05;;;;;;;;;;5039025;28;20041;-59
2022/12/01 02:24:26;;;;;;;32.65;5.68;;;;;;;;;;5042481;28;20074;-58
2022/12/01 02:27:05;;;;;;;31.50;5.95;;;;;;;;;;5042538;28;20025;-58
2022/12/01 02:29:51;;;;;;;22.60;5.03;;;;;;;;;;5040062;28;20501;-56
2022/12/01 02:32:26;;;;;;;24.60;4.60;;;;;;;;;;5041401;28;20029;-59
2022/12/01 02:34:59;;;;;;;18.83;4.20;;;;;;;;;;5038456;28;20099;-57
2022/12/01 02:37:28;;;;;;;12.50;2.92;;;;;;;;;;5045187;28;20025;-57
2022/12/01 02:40:22;;;;;;;18.88;3.25;;;;;;;;;;5047756;28;20419;-57
2022/12/01 02:42:58;;;;;;;12.02;2.53;;;;;;;;;;5037773;28;20479;-54
2022/12/01 02:45:31;;;;;;;13.35;2.30;;;;;;;;;;5040406;28;20064;-55
2022/12/01 02:48:01;;;;;;;21.35;2.35;;;;;;;;;;5040091;28;20490;-57
2022/12/01 02:50:29;;;;;;;12.90;1.98;;;;;;;;;;5041618;28;20036;-57
2022/12/01 02:52:57;;;;;;;21.65;2.30;;;;;;;;;;5042111;28;20104;-57
2022/12/01 02:55:24;;;;;;;15.52;2.58;;;;;;;;;;5040282;28;20033;-57
2022/12/01 02:57:50;;;;;;;21.67;2.25;;;;;;;;;;5050816;28;20048;-57
2022/12/01 03:00:18;;;;;;;16.65;2.80;;;;;;;;;;5052334;28;20037;-58
2022/12/01 03:03:01;;;;;;;19.13;2.45;;;;;;;;;;5052400;28;20104;-57
2022/12/01 03:05:31;;;;;;;13.07;2.00;;;;;;;;;;5052185;28;20029;-55
2022/12/01 03:08:24;;;;;;;13.65;1.50;;;;;;;;;;5052629;28;20025;-56
2022/12/01 03:10:50;;;;;;;;;;;;;;;;;;5036879;28;20422;-52
2022/12/01 03:13:35;;;;;;;32.00;3.40;;;;;;;;;;5052236;28;19999;-53
2022/12/01 03:16:08;;;;;;;22.08;2.60;;;;;;;;;;5052186;28;20116;-53
2022/12/01 03:18:52;;;;;;;16.48;2.85;;;;;;;;;;5052233;28;20029;-54
2022/12/01 03:21:25;;;;;;;23.23;2.80;;;;;;;;;;5052035;28;20044;-52
2022/12/01 03:23:58;;;;;;;32.55;3.08;;;;;;;;;;5052111;28;20090;-55
2022/12/01 03:26:26;;;;;;;24.67;2.72;;;;;;;;;;5052091;28;20039;-53
2022/12/01 03:28:55;;;;;;;28.92;2.85;;;;;;;;;;5052107;28;20051;-56
2022/12/01 03:31:27;;;;;;;21.95;2.80;;;;;;;;;;5051953;28;20041;-55
2022/12/01 03:33:59;;;;;;;14.13;2.30;;;;;;;;;;5051567;28;20044;-54
2022/12/01 03:36:34;;;;;;;19.33;2.97;;;;;;;;;;5050544;28;20509;-51
2022/12/01 03:39:03;;;;;;;21.08;2.63;;;;;;;;;;5051915;28;20499;-54
2022/12/01 03:41:37;;;;;;;15.30;3.45;;;;;;;;;;5051511;28;20029;-50
2022/12/01 03:44:07;;;;;;;17.17;3.25;;;;;;;;;;5051850;28;20112;-52
2022/12/01 03:46:41;;;;;;;14.80;2.30;;;;;;;;;;5051645;28;20029;-51
2022/12/01 03:49:09;;;;;;;17.05;2.15;;;;;;;;;;5051689;28;20457;-55
2022/12/01 03:51:42;;;;;;;16.75;2.50;;;;;;;;;;5051745;28;20033;-53
2022/12/01 03:54:16;;;;;;;12.82;2.30;;;;;;;;;;5051659;28;20502;-54
2022/12/01 03:56:53;;;;;;;17.45;2.38;;;;;;;;;;5051392;28;20126;-50
2022/12/01 03:59:21;;;;;;;11.50;2.38;;;;;;;;;;5051649;28;20187;-56
2022/12/01 04:01:48;;;;;;;12.43;2.58;;;;;;;;;;5051548;28;20162;-53
2022/12/01 04:04:15;;;;;;;12.02;2.00;;;;;;;;;;5051644;28;20472;-54
2022/12/01 04:06:45;;;;;;;11.02;2.50;;;;;;;;;;5051652;28;20495;-53
2022/12/01 04:09:12;;;;;;;12.07;2.42;;;;;;;;;;5051646;28;20128;-54
2022/12/01 04:14:24;;;;;;;22.02;2.30;;;;;;;;;;5051568;28;20585;-53
2022/12/01 04:16:51;;;;;;;15.32;2.50;;;;;;;;;;5051523;28;20102;-53
2022/12/01 04:19:17;;;;;;;11.40;2.75;;;;;;;;;;5051427;28;20099;-50
2022/12/01 04:21:44;;;;;;;11.88;2.67;;;;;;;;;;5051505;28;20479;-50
2022/12/01 04:24:12;;;;;;;13.02;2.92;;;;;;;;;;5051769;28;20033;-55
2022/12/01 04:26:39;;;;;;;15.10;2.13;;;;;;;;;;5051396;28;20100;-51
2022/12/01 04:29:07;;;;;;;11.30;2.28;;;;;;;;;;5051448;28;20056;-50
2022/12/01 04:31:34;;;;;;;11.65;2.83;;;;;;;;;;5051434;28;20033;-53
2022/12/01 04:34:01;;;;;;;11.75;2.28;;;;;;;;;;5051408;28;20057;-50
2022/12/01 04:36:30;;;;;;;13.40;2.33;;;;;;;;;;5050817;28;20087;-57
2022/12/01 04:38:57;;;;;;;7.85;2.10;;;;;;;;;;5050106;28;20114;-54
2022/12/01 04:41:24;;;;;;;11.25;1.90;;;;;;;;;;5051204;28;20490;-52
2022/12/01 04:43:54;;;;;;;13.70;2.00;;;;;;;;;;5052526;28;20059;-56
2022/12/01 04:46:22;;;;;;;9.68;1.80;;;;;;;;;;5055093;28;20840;-52
2022/12/01 04:48:49;;;;;;;13.50;1.98;;;;;;;;;;5055089;28;20025;-53
2022/12/01 04:51:16;;;;;;;12.80;1.50;;;;;;;;;;5055023;28;20021;-52
2022/12/01 04:53:43;;;;;;;14.15;2.22;;;;;;;;;;5054891;28;21230;-56
2022/12/01 04:56:10;;;;;;;11.73;2.05;;;;;;;;;;5054615;28;20510;-51
2022/12/01 04:58:37;;;;;;;16.27;2.20;;;;;;;;;;5054832;28;20064;-54
2022/12/01 05:01:05;;;;;;;13.50;1.80;;;;;;;;;;5054724;28;20070;-52
2022/12/01 05:03:32;;;;;;;8.60;1.83;;;;;;;;;;5054774;28;20051;-53
2022/12/01 05:06:05;;;;;;;12.40;2.05;;;;;;;;;;5054416;28;20368;-50
2022/12/01 05:08:33;;;;;;;13.02;2.28;;;;;;;;;;5054720;28;20053;-51
2022/12/01 05:11:00;;;;;;;10.48;1.70;;;;;;;;;;5054668;28;20029;-52
2022/12/01 05:13:27;;;;;;;6.57;1.90;;;;;;;;;;5054499;28;20434;-52
2022/12/01 05:15:54;;;;;;;14.25;1.80;;;;;;;;;;5054518;28;20059;-54
2022/12/01 05:18:21;;;;;;;17.63;2.35;;;;;;;;;;5054459;28;20116;-50
2022/12/01 05:20:57;;;;;;;8.85;2.03;;;;;;;;;;5054265;28;20460;-54
2022/12/01 05:23:25;;;;;;;13.88;2.00;;;;;;;;;;5054306;28;20049;-50
2022/12/01 05:25:52;;;;;;;9.50;1.92;;;;;;;;;;5054323;28;20080;-51
2022/12/01 05:28:19;;;;;;;10.07;1.70;;;;;;;;;;5054108;28;20028;-53
2022/12/01 05:30:46;;;;;;;15.40;2.20;;;;;;;;;;5054325;28;20029;-50
2022/12/01 05:33:13;;;;;;;7.68;1.88;;;;;;;;;;5054101;28;20041;-53
2022/12/01 05:35:40;;;;;;;10.20;2.10;;;;;;;;;;5054139;28;20059;-53
2022/12/01 05:38:07;;;;;;;10.02;1.92;;;;;;;;;;5054146;28;20025;-53
2022/12/01 05:40:35;;;;;;;7.43;1.65;;;;;;;;;;5054052;28;20071;-55
2022/12/01 05:43:02;;;;;;;9.98;2.05;;;;;;;;;;5054003;28;20171;-55
2022/12/01 05:45:28;;;;;;;7.60;2.05;;;;;;;;;;5053927;28;20025;-51
2022/12/01 05:47:59;;;;;;;12.23;2.25;;;;;;;;;;5052591;28;20029;-55
2022/12/01 05:50:27;;;;;;;8.07;2.35;;;;;;;;;;5053800;28;20104;-52
2022/12/01 05:52:54;;;;;;;7.85;1.73;;;;;;;;;;5053884;28;20680;-54
2022/12/01 05:55:21;;;;;;;9.60;2.08;;;;;;;;;;5052886;28;20465;-55
2022/12/01 05:57:48;;;;;;;9.40;2.00;;;;;;;;;;5053651;28;20106;-52
2022/12/01 06:00:15;;;;;;;13.70;2.50;;;;;;;;;;5053660;28;20060;-56
2022/12/01 06:02:43;;;;;;;10.05;2.30;;;;;;;;;;5051008;28;20029;-54
2022/12/01 06:05:10;;;;;;;10.45;1.98;;;;;;;;;;5053618;28;20025;-51
2022/12/01 06:07:39;;;;;;;9.48;2.30;;;;;;;;;;5053542;28;20475;-50
2022/12/01 06:10:06;;;;;;;8.68;1.85;;;;;;;;;;5053761;28;20111;-53
2022/12/01 06:12:33;;;;;;;11.70;2.05;;;;;;;;;;5053040;28;20028;-50
2022/12/01 06:15:00;;;;;;;7.25;1.80;;;;;;;;;;5053513;28;20067;-55
2022/12/01 06:17:28;;;;;;;10.52;1.80;;;;;;;;;;5053480;28;20483;-50
2022/12/01 06:19:55;;;;;;;10.18;2.28;;;;;;;;;;5053208;28;20136;-53
2022/12/01 06:22:22;;;;;;;12.27;2.10;;;;;;;;;;5053102;28;20035;-55
2022/12/01 06:24:49;;;;;;;7.85;2.00;;;;;;;;;;5053340;28;20075;-56
2022/12/01 06:27:16;;;;;;;11.18;2.35;;;;;;;;;;5053151;28;20057;-56
2022/12/01 06:29:43;;;;;;;10.10;1.83;;;;;;;;;;5053273;28;20039;-57
2022/12/01 06:32:10;;;;;;;8.27;2.05;;;;;;;;;;5053294;28;20100;-55
2022/12/01 06:34:37;;;;;;;9.68;2.38;;;;;;;;;;5053158;28;20017;-56
2022/12/01 06:37:04;;;;;;;27.60;3.40;;;;;;;;;;5053092;28;20025;-57
2022/12/01 06:39:31;;;;;;;16.30;2.28;;;;;;;;;;5052926;28;20040;-55
2022/12/01 06:41:58;;;;;;;13.85;2.30;;;;;;;;;;5052970;28;20043;-55
2022/12/01 06:44:24;;;;;;;10.95;2.45;;;;;;;;;;5052911;28;20542;-55
2022/12/01 06:46:52;;;;;;;17.85;2.45;;;;;;;;;;5052784;28;20029;-58
2022/12/01 06:49:19;;;;;;;8.77;2.78;;;;;;;;;;5052821;28;20100;-56
2022/12/01 06:51:46;;;;;;;12.02;2.13;;;;;;;;;;5052864;28;20180;-57
2022/12/01 06:54:14;;;;;;;11.25;1.90;;;;;;;;;;5039893;28;20104;-51
2022/12/01 06:56:44;;;;;;;11.35;2.22;;;;;;;;;;5032493;28;20395;-53
2022/12/01 06:59:11;;;;;;;14.63;2.60;;;;;;;;;;5032562;28;20037;-54
2022/12/01 07:01:39;;;;;;;13.18;2.75;;;;;;;;;;5032618;28;20033;-50
2022/12/01 07:04:06;;;;;;;12.65;2.50;;;;;;;;;;5031405;28;20113;-50
2022/12/01 07:06:33;;;;;;;8.82;2.30;;;;;;;;;;5031987;28;20021;-53
2022/12/01 07:09:00;;;;;;;10.30;2.45;;;;;;;;;;5032182;28;20105;-50
2022/12/01 07:11:27;;;;;;;11.95;2.80;;;;;;;;;;5032434;28;20029;-53
2022/12/01 07:13:57;;;;;;;10.02;2.28;;;;;;;;;;5032529;28;20412;-52
2022/12/01 07:16:24;;;;;;;12.15;2.95;;;;;;;;;;5032446;28;20040;-50
2022/12/01 07:18:51;;;;;;;8.88;2.40;;;;;;;;;;5032373;28;20026;-50
2022/12/01 07:21:18;;;;;;;10.60;2.40;;;;;;;;;;5032140;28;20076;-50
2022/12/01 07:23:46;;;;;;;11.15;2.50;;;;;;;;;;5032137;28;20029;-53
2022/12/01 07:26:17;;;;;;;14.20;3.53;;;;;;;;;;5032266;28;20040;-53
2022/12/01 07:28:45;;;;;;;10.82;3.08;;;;;;;;;;5032241;28;20022;-53
2022/12/01 07:31:16;;;;;;;13.88;3.28;;;;;;;;;;5032333;28;20034;-50
2022/12/01 07:33:43;;;;;;;12.05;2.78;;;;;;;;;;5032259;28;20040;-53
2022/12/01 07:36:10;;;;;;;12.70;2.65;;;;;;;;;;5031963;28;20022;-52
2022/12/01 07:38:38;;;;;;;12.25;3.40;;;;;;;;;;5032187;28;20461;-53
2022/12/01 07:41:06;;;;;;;15.45;3.13;;;;;;;;;;5032044;28;20037;-50
2022/12/01 07:43:33;;;;;;;9.20;2.58;;;;;;;;;;5032203;28;20029;-54
2022/12/01 07:46:07;;;;;;;14.77;3.47;;;;;;;;;;5031948;28;20079;-50
2022/12/01 07:48:34;;;;;;;12.90;2.95;;;;;;;;;;5031911;28;20038;-50
2022/12/01 07:51:02;;;;;;;11.52;2.97;;;;;;;;;;5032023;28;20109;-53
2022/12/01 07:53:28;;;;;;;17.65;3.50;;;;;;;;;;5031869;28;20029;-52
2022/12/01 07:55:56;;;;;;;11.18;2.70;;;;;;;;;;5031673;28;20180;-51
2022/12/01 07:58:23;;;;;;;14.80;3.38;;;;;;;;;;5031940;28;20104;-50
2022/12/01 08:00:50;;;;;;;15.13;3.38;;;;;;;;;;5031834;28;20034;-50
2022/12/01 08:03:16;;;;;;;13.18;3.65;;;;;;;;;;5031928;28;20049;-52
2022/12/01 08:05:43;;;;;;;17.02;3.90;;;;;;;;;;5031693;28;20025;-54
2022/12/01 08:08:11;;;;;;;15.10;3.90;;;;;;;;;;5031874;28;20029;-54
2022/12/01 08:10:37;;;;;;;14.85;3.40;;;;;;;;;;5031884;28;20029;-51
2022/12/01 08:13:04;;;;;;;16.98;3.90;;;;;;;;;;5031856;28;20026;-50
2022/12/01 08:15:32;;;;;;;11.85;3.45;;;;;;;;;;5031723;28;20025;-51
2022/12/01 08:18:01;;;;;;;13.40;3.50;;;;;;;;;;5031801;28;20029;-52
2022/12/01 08:20:28;;;;;;;12.65;3.30;;;;;;;;;;5035557;28;20038;-50
2022/12/01 08:22:55;;;;;;;16.73;3.78;;;;;;;;;;5035614;28;20036;-50
2022/12/01 08:25:22;;;;;;;18.17;3.70;;;;;;;;;;5035664;28;20036;-50
2022/12/01 08:27:49;;;;;;;18.73;4.30;;;;;;;;;;5035442;28;20076;-54
2022/12/01 08:30:16;;;;;;;17.05;3.63;;;;;;;;;;5035366;28;20026;-52
2022/12/01 08:32:42;;;;;;;16.75;4.07;;;;;;;;;;5035641;28;20083;-52
2022/12/01 08:35:10;;;;;;;15.55;4.22;;;;;;;;;;5035545;28;20056;-55
2022/12/01 08:37:36;;;;;;;18.15;3.67;;;;;;;;;;5035400;28;20052;-54
2022/12/01 08:40:04;;;;;;;13.43;3.97;;;;;;;;;;5035320;28;20029;-57
2022/12/01 08:42:31;;;;;;;18.85;4.32;;;;;;;;;;5035361;28;20072;-54
2022/12/01 08:44:57;;;;;;;20.90;4.35;;;;;;;;;;5035312;28;20451;-56
2022/12/01 08:47:24;;;;;;;20.00;4.28;;;;;;;;;;5035403;28;20049;-57
2022/12/01 08:49:51;;;;;;;21.67;4.72;;;;;;;;;;5035188;28;20083;-56
2022/12/01 08:52:19;;;;;;;19.33;3.92;;;;;;;;;;5035327;28;20022;-57
2022/12/01 08:54:46;;;;;;;19.02;3.95;;;;;;;;;;5035242;28;20539;-54
2022/12/01 08:57:13;;;;;;;22.08;4.10;;;;;;;;;;5035135;28;20427;-55
2022/12/01 08:59:40;;;;;;;15.75;4.25;;;;;;;;;;5035136;28;20064;-53
2022/12/01 09:02:17;;;;;;;18.38;4.47;;;;;;;;;;5035125;28;20104;-55
2022/12/01 09:04:44;;;;;;;26.63;4.82;;;;;;;;;;5034885;28;20030;-55
2022/12/01 09:07:13;;;;;;;27.13;4.72;;;;;;;;;;5035041;28;20033;-56
2022/12/01 09:09:40;;;;;;;21.73;4.78;;;;;;;;;;5052033;28;20491;-53
2022/12/01 09:12:08;;;;;;;21.20;4.25;;;;;;;;;;5053568;28;20383;-52
2022/12/01 09:14:38;;;;;;;18.00;4.05;;;;;;;;;;5054992;28;20025;-54
2022/12/01 09:17:06;;;;;;;24.17;5.22;;;;;;;;;;5054668;28;20037;-54
2022/12/01 09:19:33;;;;;;;35.80;5.15;;;;;;;;;;5054771;28;20420;-55
2022/12/01 09:22:00;;;;;;;21.90;4.38;;;;;;;;;;5054681;28;20033;-54
2022/12/01 09:24:27;;;;;;;26.50;4.40;;;;;;;;;;5054903;28;20040;-52
2022/12/01 09:27:02;;;;;;;25.63;4.88;;;;;;;;;;5054745;28;20044;-53
2022/12/01 09:29:29;;;;;;;21.25;4.40;;;;;;;;;;5054255;28;20025;-55
2022/12/01 09:31:57;;;;;;;24.98;4.72;;;;;;;;;;5053969;28;20065;-54
2022/12/01 09:34:24;;;;;;;37.38;5.20;;;;;;;;;;5054426;28;20053;-53
2022/12/01 09:36:51;;;;;;;26.85;4.95;;;;;;;;;;5054365;28;20031;-55
2022/12/01 09:39:19;;;;;;;26.80;4.60;;;;;;;;;;5054494;28;20031;-54
2022/12/01 09:41:48;;;;;;;26.38;5.15;;;;;;;;;;5052936;28;20041;-54
2022/12/01 09:44:19;;;;;;;27.95;5.03;;;;;;;;;;5054414;28;20025;-53
2022/12/01 09:46:46;;;;;;;70.32;8.93;;;;;;;;;;5054056;28;20037;-56
2022/12/01 09:49:19;;;;;;;39.45;5.78;;;;;;;;;;5054293;28;20021;-54
2022/12/01 09:51:46;;;;;;;37.00;5.25;;;;;;;;;;5054187;28;20033;-53
2022/12/01 09:54:13;;;;;;;44.03;6.05;;;;;;;;;;5054010;28;20036;-55
2022/12/01 09:56:44;;;;;;;38.05;5.53;;;;;;;;;;5053970;28;20052;-53
2022/12/01 09:59:16;;;;;;;31.42;5.22;;;;;;;;;;5054051;28;20116;-56
2022/12/01 10:01:46;;;;;;;28.08;5.20;;;;;;;;;;5053766;28;20067;-54
2022/12/01 10:04:36;;;;;;;43.75;6.80;;;;;;;;;;5038545;28;20033;-52
2022/12/01 10:07:05;;;;;;;36.22;6.25;;;;;;;;;;5033845;28;20037;-52
2022/12/01 10:09:36;;;;;;;37.95;6.30;;;;;;;;;;5033849;28;20030;-51
2022/12/01 10:12:17;;;;;;;39.40;5.43;;;;;;;;;;5033885;28;20029;-50
2022/12/01 10:14:45;;;;;;;28.42;5.63;;;;;;;;;;5033629;28;20026;-52
2022/12/01 10:17:31;;;;;;;33.20;6.28;;;;;;;;;;5033765;28;20112;-50
2022/12/01 10:20:03;;;;;;;22.95;4.88;;;;;;;;;;5033526;28;20038;-50
2022/12/01 10:22:49;;;;;;;24.77;5.28;;;;;;;;;;5033677;28;20029;-51
2022/12/01 10:25:16;;;;;;;27.42;4.45;;;;;;;;;;5032584;28;20060;-50
2022/12/01 10:27:43;;;;;;;39.75;5.57;;;;;;;;;;5033677;28;20040;-56
2022/12/01 10:30:15;;;;;;;24.83;5.30;;;;;;;;;;5048630;28;20036;-49
2022/12/01 10:32:53;;;;;;;26.23;5.15;;;;;;;;;;5053019;28;20471;-56
2022/12/01 10:35:24;;;;;;;72.55;8.45;;;;;;;;;;5053165;28;20021;-51
2022/12/01 10:37:54;;;;;;;49.78;6.20;;;;;;;;;;5046749;28;20390;-59
2022/12/01 10:40:21;;;;;;;68.45;6.88;;;;;;;;;;5052039;28;20390;-58
2022/12/01 10:42:50;;;;;;;38.22;5.93;;;;;;;;;;5051618;28;20041;-60
2022/12/01 10:45:21;;;;;;;46.10;6.85;;;;;;;;;;5052128;28;20395;-61
2022/12/01 10:48:14;;;;;;;17.23;4.43;;;;;;;;;;5052091;28;20025;-61
2022/12/01 10:50:46;;;;;;;57.30;6.50;;;;;;;;;;5052330;28;20486;-61
2022/12/01 10:53:31;;;;;;;34.38;5.38;;;;;;;;;;5052444;28;20443;-58
2022/12/01 10:56:17;;;;;;;34.53;5.70;;;;;;;;;;5052307;28;20052;-55
2022/12/01 10:58:50;;;;;;;33.28;5.45;;;;;;;;;;5050434;28;20036;-60
2022/12/01 11:01:19;;;;;;;37.80;5.63;;;;;;;;;;5052327;28;20037;-57
2022/12/01 11:03:50;;;;;;;30.17;4.90;;;;;;;;;;5038251;28;20018;-58
2022/12/01 11:06:21;;;;;;;38.83;6.30;;;;;;;;;;5052740;28;20099;-57
2022/12/01 11:08:53;;;;;;;34.05;5.93;;;;;;;;;;5052407;28;20060;-55
2022/12/01 11:11:26;;;;;;;33.80;5.32;;;;;;;;;;5052206;28;20033;-57
2022/12/01 11:13:54;;;;;;;28.05;5.15;;;;;;;;;;5052655;28;20048;-58
2022/12/01 11:16:36;;;;;;;27.13;4.85;;;;;;;;;;5052419;28;20514;-56
2022/12/01 11:19:23;;;;;;;31.38;5.60;;;;;;;;;;5052545;28;20028;-57
2022/12/01 11:21:51;;;;;;;34.28;6.10;;;;;;;;;;5038403;28;20497;-60
2022/12/01 11:24:29;;;;;;;50.40;6.35;;;;;;;;;;5052338;28;20032;-59
2022/12/01 11:26:57;;;;;;;21.55;4.88;;;;;;;;;;5052228;28;20036;-59
2022/12/01 11:29:34;;;;;;;26.90;5.03;;;;;;;;;;5051832;28;20033;-58
2022/12/01 11:32:03;;;;;;;28.80;5.63;;;;;;;;;;5043237;28;20427;-54
2022/12/01 11:34:33;;;;;;;43.47;5.70;;;;;;;;;;5049614;28;20036;-60
2022/12/01 11:37:05;;;;;;;29.00;5.53;;;;;;;;;;5051994;28;20083;-60
2022/12/01 11:39:37;;;;;;;30.50;5.03;;;;;;;;;;5051922;28;20510;-59
2022/12/01 11:42:06;;;;;;;28.40;5.25;;;;;;;;;;5052013;28;20052;-60
2022/12/01 11:44:34;;;;;;;30.80;5.18;;;;;;;;;;5051996;28;20017;-59
2022/12/01 11:47:20;;;;;;;32.33;4.63;;;;;;;;;;5051861;28;20108;-59
2022/12/01 11:49:52;;;;;;;24.52;4.95;;;;;;;;;;5049297;28;20104;-58
2022/12/01 11:52:27;;;;;;;40.97;5.72;;;;;;;;;;5051169;28;20939;-58
2022/12/01 11:55:03;;;;;;;50.58;7.40;;;;;;;;;;5048384;28;20104;-58
2022/12/01 11:57:31;;;;;;;52.15;6.78;;;;;;;;;;5050956;28;20079;-55
2022/12/01 11:59:58;;;;;;;35.20;5.10;;;;;;;;;;5050047;28;20068;-59
2022/12/01 12:02:34;;;;;;;37.35;5.90;;;;;;;;;;5049954;28;20037;-57
2022/12/01 12:05:04;;;;;;;39.42;5.97;;;;;;;;;;5051584;28;20028;-59
2022/12/01 12:07:31;;;;;;;31.50;5.40;;;;;;;;;;5051781;28;20024;-57
2022/12/01 12:10:16;;;;;;;32.80;5.22;;;;;;;;;;5051835;28;20025;-59
2022/12/01 12:12:58;;;;;;;29.25;4.75;;;;;;;;;;5051802;28;20049;-55
2022/12/01 12:15:44;;;;;;;130.50;12.70;;;;;;;;;;5051613;28;20080;-55
2022/12/01 12:18:22;;;;;;;47.75;6.20;;;;;;;;;;5050449;28;20107;-57
2022/12/01 12:20:58;;;;;;;42.10;5.95;;;;;;;;;;5051552;28;20041;-58
2022/12/01 12:23:50;;;;;;;28.00;4.57;;;;;;;;;;5051634;28;20037;-58
2022/12/01 12:26:17;;;;;;;;;;;;;;;;;;5051636;28;20501;-57
2022/12/01 12:29:03;;;;;;;38.38;5.50;;;;;;;;;;5051174;28;19961;-59
2022/12/01 12:31:30;;;;;;;30.73;4.97;;;;;;;;;;5051375;28;20487;-57
2022/12/01 12:34:15;;;;;;;31.25;5.00;;;;;;;;;;5051372;28;20021;-58
2022/12/01 12:36:51;;;;;;;28.58;4.90;;;;;;;;;;5049971;28;20032;-58
2022/12/01 12:39:19;;;;;;;34.17;5.13;;;;;;;;;;5051357;28;20018;-58
2022/12/01 12:41:48;;;;;;;32.00;4.97;;;;;;;;;;5050710;28;20139;-58
2022/12/01 12:44:24;;;;;;;27.52;4.57;;;;;;;;;;5051054;28;20116;-56
2022/12/01 12:46:59;;;;;;;27.33;4.03;;;;;;;;;;5051418;28;20036;-57
2022/12/01 12:49:38;;;;;;;35.75;5.60;;;;;;;;;;5051297;28;20060;-59
2022/12/01 12:52:07;;;;;;;64.80;7.90;;;;;;;;;;5047357;28;20459;-56
2022/12/01 12:54:50;;;;;;;28.33;3.92;;;;;;;;;;5050915;28;20029;-57
2022/12/01 12:57:23;;;;;;;25.75;4.70;;;;;;;;;;5050749;28;20132;-60
2022/12/01 13:00:02;;;;;;;30.92;4.30;;;;;;;;;;5050567;28;20032;-55
2022/12/01 13:02:51;;;;;;;22.90;3.97;;;;;;;;;;5051156;28;20029;-57
2022/12/01 13:05:40;;;;;;;27.55;3.90;;;;;;;;;;5050980;28;20025;-58
2022/12/01 13:08:16;;;;;;;24.27;3.72;;;;;;;;;;5045172;28;20034;-55
2022/12/01 13:10:46;;;;;;;19.95;3.45;;;;;;;;;;5034484;28;20029;-58
2022/12/01 13:13:51;;;;;;;30.58;4.07;;;;;;;;;;5032548;28;20096;-58
2022/12/01 13:16:20;;;;;;;27.75;3.55;;;;;;;;;;4962735;28;20030;-59
2022/12/01 13:18:50;;;;;;;20.63;3.33;;;;;;;;;;4971620;28;20039;-58
2022/12/01 13:21:19;;;;;;;16.08;3.35;;;;;;;;;;5014834;28;20053;-59
2022/12/01 13:23:47;;;;;;;18.27;3.13;;;;;;;;;;5053292;28;20063;-57
2022/12/01 13:26:15;;;;;;;32.85;4.20;;;;;;;;;;5053819;28;20028;-57
2022/12/01 13:28:44;;;;;;;24.90;3.30;;;;;;;;;;5053717;28;20491;-60
2022/12/01 13:31:13;;;;;;;35.22;4.32;;;;;;;;;;5053651;28;20032;-59
2022/12/01 13:33:45;;;;;;;33.78;3.72;;;;;;;;;;5051796;28;20524;-59
2022/12/01 13:36:13;;;;;;;24.25;3.38;;;;;;;;;;5053475;28;20029;-60
2022/12/01 13:38:40;;;;;;;25.85;3.67;;;;;;;;;;5053581;28;20565;-59
2022/12/01 13:41:10;;;;;;;19.48;3.35;;;;;;;;;;5053345;28;20494;-57
2022/12/01 13:43:37;;;;;;;24.17;3.70;;;;;;;;;;5053470;28;20033;-59
2022/12/01 13:46:04;;;;;;;45.03;4.63;;;;;;;;;;5053283;28;20391;-59
2022/12/01 13:48:37;;;;;;;39.80;4.05;;;;;;;;;;5053539;28;20036;-59
2022/12/01 13:51:04;;;;;;;44.38;4.43;;;;;;;;;;5053409;28;20021;-60
2022/12/01 13:53:35;;;;;;;34.20;4.72;;;;;;;;;;5053235;28;20082;-60
2022/12/01 13:56:05;;;;;;;25.40;3.42;;;;;;;;;;5052934;28;20105;-59
2022/12/01 13:58:36;;;;;;;23.70;3.60;;;;;;;;;;5053367;28;20025;-60
2022/12/01 14:01:33;;;;;;;21.35;3.60;;;;;;;;;;5053076;28;20638;-59
2022/12/01 14:04:20;;;;;;;26.42;3.03;;;;;;;;;;5036930;28;20040;-59
2022/12/01 14:06:48;;;;;;;27.33;3.33;;;;;;;;;;5052978;28;20057;-62
2022/12/01 14:09:24;;;;;;;22.58;3.17;;;;;;;;;;5051547;28;20048;-60
2022/12/01 14:12:10;;;;;;;22.15;3.42;;;;;;;;;;5053060;28;20040;-58
2022/12/01 14:14:40;;;;;;;17.77;3.30;;;;;;;;;;5039367;28;20057;-58
2022/12/01 14:17:07;;;;;;;20.27;2.75;;;;;;;;;;5052133;28;20024;-58
2022/12/01 14:19:41;;;;;;;20.98;2.92;;;;;;;;;;5053082;28;20033;-60
2022/12/01 14:22:27;;;;;;;13.15;2.83;;;;;;;;;;5052559;28;20040;-61
2022/12/01 14:24:56;;;;;;;18.70;2.65;;;;;;;;;;5052678;28;20021;-60
2022/12/01 14:27:37;;;;;;;20.83;2.40;;;;;;;;;;5052756;28;20037;-60
2022/12/01 14:30:22;;;;;;;19.42;2.58;;;;;;;;;;5052449;28;20028;-60
2022/12/01 14:32:49;;;;;;;12.52;3.20;;;;;;;;;;5052363;28;20029;-58
2022/12/01 14:35:16;;;;;;;15.38;3.00;;;;;;;;;;5052629;28;20021;-59
2022/12/01 14:37:45;;;;;;;18.27;2.90;;;;;;;;;;5052423;28;20036;-59
2022/12/01 14:40:15;;;;;;;24.75;3.47;;;;;;;;;;5052117;28;20048;-59
2022/12/01 14:45:35;;;;;;;29.10;3.33;;;;;;;;;;5052228;28;20143;-59
2022/12/01 14:48:07;;;;;;;26.60;3.55;;;;;;;;;;5052367;28;20086;-59
2022/12/01 14:50:37;;;;;;;22.42;2.97;;;;;;;;;;5052571;28;20036;-59
2022/12/01 14:53:27;;;;;;;37.53;3.63;;;;;;;;;;5051518;28;20668;-59
2022/12/01 14:55:55;;;;;;;25.35;3.65;;;;;;;;;;5041975;28;20662;-58